Houlton International Airport Houlton US
ICAO: KHUL
IATA: HUL
Category: Medium
Scheduled Services: No

Elevation: 489 ft
TransAlt. 18000 ft.

Airport Communications:
ASOS:132.025
BOSTON CNTR:120.25
BANGOR RDO:122.2
CTAF/UNICOM:122.8

KHUL Zoom In..

If you have problems with the map follow the link
https://www.worldairports.se/pages/airport.php?
ICAO=KHUL

Runways:

(A) RW 01 length 2700 ft width 60 ft
---- / hdg 10

(B) RW 05 length 5015 ft width 100 ft
---- / hdg 49

(C) RW 19 length 2700 ft width 60 ft
---- / hdg 190

(D) RW 23 length 5015 ft width 100 ft
---- / hdg 229

Location; KHUL
Day. 10 / Time. 02.53 Zulu
* Altimeter: 29.62
* Temperature: 09° c. 48.2°f.
* Wind from: 170° Speed 09 kn with Gusts up to 19 kn.
Dewpoint: 08° c.
Visibility: 5 Statute Miles.
Clouds: Few 800 ft.
Clouds: Overcast 2500 ft.
Conditions: Light Rain.Conditions: Mist.

KHUL 100253Z AUTO 17009G19KT 5SM -RA BR FEW008 OVC025 09/08 A2962 RMK AO2 PRESFR SLP035 P0008 60019 T00940083 58061


Wind From 170°
Speed 09 kn.

 
 
jpsmedia worldairports.se 2019   terms of use